Αρχική σελίδα
METAR-TAF:

METAR-TAF

Αεροδρόμια :

Yap, Μικρονησία

γεωγραφικό πλάτος: 09-29N, γεωγραφικό μήκος: 138-05E, υψόμετρο: 28 μ

Παρών καιρός

Η αναφορά έγινε 1 ώρα και 4 λεπτά πριν, στις 03:51 UTC
Άνεμος 10 kt από Α/NA
Θερμοκρασία 31°C
Υγρασία 79%
Πίεση 1009 hPa
Ορατότητα: 19.3 χλμ
Λίγα νέφη σε ύψος 1800 πόδια
Αρκετά νέφη σε ύψος 30000 πόδια

METAR: PTYA 250351Z 11010KT 12SM FEW018 BKN300 31/27 A2981 RMK SLP095 T03060271

Χρόνος: 14:55 (04:55 UTC)

Πρόγνωση Καιρού

Η αναφορά έγινε 5 ώρες και 20 λεπτά πριν, στις 23:35 UTC
Η πρόγνωση ισχύει από τις 25 στις 00 UTC έως τις 25 στις 24 UTC
Άνεμος 11 kt από Α
Ορατότητα: 10 χλμ
Λίγα νέφη σε ύψος 1500 πόδια
Διάσπαρτα νέφη σε ύψος 11000 πόδια
Όμβροι σε κοντινή απόσταση,

TAF: PTYA 242335Z 2500/2524 09011KT P6SM VCSH FEW015 SCT110

Μετεωρολογικές αναφορές και προγνώσεις για περισσότερα από 4000 αεροδρόμια (δελτία METAR και TAF).

Οι διαθέσιμοι σταθμοί απεικονίζονται στο χάρτη με κίτρινες και κόκκινες κουκκίδες.

Μετακινήστε το ποντίκι πάνω από τις κουκκίδες για να δείτε το όνομα του σταθμού.

Στη συνέχεια, κάντε κλικ για να δείτε τις μετεωρολογικές αναφορές και τις προγνώσεις καιρού.

Για να αλλάξετε το χάρτη: κάντε κλικ στα πράσινα κουμπιά με τον μαύρο σταυρό για να ζουμάρετε, στο πράσινο κουμπί με την παύλα για να αφαιρέσετε το ζουμ ή στα πράσινα βέλη για να αντιπαραβάλλετε χάρτες.


METAR-TAF: